首页
METAR-TAF:

METAR-TAF

机场 :

福賈, 意大利

纬度: 41-32N, 经度: 015-43E, 海拔: 57米

当前天气观测

该预报发布于35分钟前的00:55 UTC
风速7节,风向西
温度 17°C
湿度 77%
气压 1018 hPa
能见度10公里或以上
少量云层高于6000英尺

METAR: LIBA 170055Z 26007KT 9999 FEW060 17/13 Q1018 RMK BKN SCT080 VIS MIN 9999 WIND THR11 26008KT WIND THR29 /////KT BLU

时间: 03:30 (01:30 UTC)

预报

该预报发布于2小时和30分钟前的23:00 UTC
预报有效从17日的 00点(UTC)到 17日的 09点(UTC)
风速10节,风向西
能见度10公里或以上
散云层高于6000英尺
短暂存在
从 17日的 01点(UTC)到 17日的 06点(UTC)
多云层高于6000英尺

TAF: LIBA 162300Z 1700/1709 27010KT 9999 SCT060 TEMPO 1701/1706 BKN060

超过4000个机场的气象观测和天气预报(METAR&TAF报告)。

可查询的气象台以黄色和红色小点在地图上表示。

将鼠标移到小点上方,可查看气象台名称。

然后点击查看天气观测和预报。

如需切换地图:点击带黑十字的绿色按钮放大地图;点击带横线的绿色按钮缩小地图;或者点击绿色箭头查看邻近地区的地图。


METAR-TAF: